Time;durP1;ratioP1;P1;durP2;ratioP2;P2;SDS_P1;SDS_P2;PMS_P1;PMS_P2;Temp;Humidity;BMP_temperature;BMP_pressure;BME280_temperature;BME280_humidity;BME280_pressure;Samples;Min_cycle;Max_cycle;Signal;HPM_P1;HPM_P2
2022/08/27 00:00:17;;;;;;;1.92;1.30;;;;;;;18.71;61.20;101118.56;5015701;28;20033;-51
2022/08/27 00:02:43;;;;;;;2.38;1.48;;;;;;;18.70;61.21;101108.72;5016582;28;20475;-52
2022/08/27 00:05:11;;;;;;;2.05;1.38;;;;;;;18.68;61.13;101110.84;5016153;28;20034;-49
2022/08/27 00:07:37;;;;;;;3.42;1.45;;;;;;;18.65;61.26;101111.31;5017043;28;20033;-52
2022/08/27 00:10:06;;;;;;;3.03;1.52;;;;;;;18.62;61.57;101109.06;5017191;28;20083;-49
2022/08/27 00:12:33;;;;;;;2.00;1.40;;;;;;;18.50;61.60;101101.69;5015328;28;20153;-50
2022/08/27 00:14:59;;;;;;;2.80;1.52;;;;;;;18.53;61.71;101111.25;5016293;28;20491;-50
2022/08/27 00:17:25;;;;;;;1.90;1.35;;;;;;;18.48;62.07;101113.84;5016362;28;20367;-51
2022/08/27 00:19:51;;;;;;;2.25;1.50;;;;;;;18.45;62.01;101108.88;5015355;28;20187;-53
2022/08/27 00:22:17;;;;;;;2.65;1.70;;;;;;;18.45;61.98;101114.31;5014969;28;20097;-49
2022/08/27 00:24:43;;;;;;;4.32;1.73;;;;;;;18.38;62.27;101109.78;5014623;28;20032;-52
2022/08/27 00:27:08;;;;;;;2.78;1.50;;;;;;;18.31;62.41;101109.06;5013952;28;20052;-51
2022/08/27 00:29:34;;;;;;;2.75;1.40;;;;;;;18.25;62.48;101101.78;5013867;28;20113;-52
2022/08/27 00:32:00;;;;;;;4.28;1.95;;;;;;;18.26;62.64;101106.19;5014118;28;20037;-54
2022/08/27 00:34:26;;;;;;;1.75;1.30;;;;;;;18.10;62.80;101088.59;5013924;28;20025;-52
2022/08/27 00:36:52;;;;;;;2.42;1.30;;;;;;;18.22;62.94;101118.59;5013811;28;20038;-52
2022/08/27 00:39:19;;;;;;;2.65;1.77;;;;;;;18.16;63.28;101120.34;5013533;28;20068;-51
2022/08/27 00:41:45;;;;;;;4.50;1.50;;;;;;;18.20;63.06;101117.97;5012592;28;20042;-49
2022/08/27 00:44:12;;;;;;;9.10;2.42;;;;;;;18.18;63.51;101115.50;5013592;28;20033;-50
2022/08/27 00:46:44;;;;;;;10.00;3.03;;;;;;;18.03;64.02;101100.63;5014016;28;20034;-50
2022/08/27 00:49:49;;;;;;;3.70;1.80;;;;;;;18.10;63.89;101107.63;5012752;28;20034;-49
2022/08/27 00:52:21;;;;;;;4.97;2.03;;;;;;;18.13;63.36;101112.63;5001752;28;20046;-48
2022/08/27 00:54:50;;;;;;;3.30;1.60;;;;;;;18.18;63.59;101106.50;5014027;28;20046;-48
2022/08/27 00:57:17;;;;;;;4.88;1.70;;;;;;;18.22;63.20;101115.00;5013748;28;20026;-48
2022/08/27 00:59:44;;;;;;;1.92;1.20;;;;;;;18.18;63.18;101106.50;5013619;28;20036;-48
2022/08/27 01:02:18;;;;;;;4.57;2.47;;;;;;;18.16;63.60;101109.47;5013472;28;20053;-51
2022/08/27 01:04:52;;;;;;;3.10;2.03;;;;;;;18.10;63.83;101107.63;5013853;28;20065;-51
2022/08/27 01:07:18;;;;;;;;;;;;;;;18.08;64.72;101109.75;5013970;28;20030;-50
2022/08/27 01:09:47;;;;;;;4.00;1.48;;;;;;;18.04;63.49;101113.97;5014017;28;19924;-49
2022/08/27 01:12:13;;;;;;;3.13;1.70;;;;;;;18.07;63.14;101104.53;5017404;28;20037;-49
2022/08/27 01:14:42;;;;;;;2.90;1.52;;;;;;;18.10;63.37;101095.94;5017203;28;20036;-53
2022/08/27 01:17:09;;;;;;;3.15;1.33;;;;;;;18.11;63.55;101106.59;5015959;28;20029;-51
2022/08/27 01:19:41;;;;;;;1.75;1.40;;;;;;;18.02;63.54;101099.78;5017313;28;20026;-50
2022/08/27 01:22:31;;;;;;;2.05;1.23;;;;;;;18.11;64.08;101108.47;5017138;28;20026;-50
2022/08/27 01:25:02;;;;;;;1.70;1.30;;;;;;;18.09;63.58;101108.69;5016525;28;20058;-50
2022/08/27 01:27:30;;;;;;;4.18;1.50;;;;;;;18.09;63.63;101103.28;5016958;28;20057;-50
2022/08/27 01:29:56;;;;;;;3.22;1.60;;;;;;;17.80;63.61;101056.75;5016469;28;20521;-49
2022/08/27 01:32:28;;;;;;;3.10;1.60;;;;;;;17.95;63.47;101086.28;5017003;28;20061;-49
2022/08/27 01:34:55;;;;;;;2.38;1.40;;;;;;;17.95;63.57;101096.31;5016678;28;20033;-50
2022/08/27 01:37:22;;;;;;;3.67;1.10;;;;;;;17.95;63.88;101104.47;5015529;28;20028;-50
2022/08/27 01:39:48;;;;;;;2.38;1.45;;;;;;;17.90;63.82;101104.31;4998622;28;20505;-49
2022/08/27 01:42:17;;;;;;;2.47;1.70;;;;;;;17.84;63.75;101094.34;5016830;28;20097;-50
2022/08/27 01:44:48;;;;;;;3.05;1.63;;;;;;;17.78;63.61;101093.34;5016881;28;20033;-51
2022/08/27 01:47:15;;;;;;;4.72;1.67;;;;;;;17.72;64.01;101096.97;5016837;28;20479;-51
2022/08/27 01:49:41;;;;;;;1.60;1.20;;;;;;;17.67;64.32;101102.25;5016293;28;20100;-51
2022/08/27 01:52:08;;;;;;;4.53;1.90;;;;;;;17.60;64.36;101102.31;5016075;28;20034;-50
2022/08/27 01:54:33;;;;;;;2.25;1.60;;;;;;;17.48;64.67;101099.50;5016354;28;20083;-50
2022/08/27 01:56:59;;;;;;;2.65;1.40;;;;;;;17.46;64.89;101101.63;5016580;28;20030;-51
2022/08/27 01:59:25;;;;;;;1.73;1.10;;;;;;;17.40;64.97;101103.34;4998496;28;20037;-51
2022/08/27 02:01:54;;;;;;;2.22;1.63;;;;;;;17.34;65.12;101093.34;5014635;28;20034;-52
2022/08/27 02:04:21;;;;;;;1.80;1.70;;;;;;;17.12;65.11;101073.94;5014791;28;20061;-50
2022/08/27 02:06:46;;;;;;;2.42;1.45;;;;;;;17.14;65.35;101079.13;5014942;28;20455;-50
2022/08/27 02:09:12;;;;;;;3.80;1.45;;;;;;;17.16;65.28;101096.88;5014742;28;20048;-49
2022/08/27 02:11:38;;;;;;;1.70;1.30;;;;;;;17.13;65.44;101101.91;5015932;28;20390;-50
2022/08/27 02:14:04;;;;;;;2.53;1.30;;;;;;;17.07;65.53;101097.34;5015761;28;20037;-50
2022/08/27 02:16:31;;;;;;;2.25;1.48;;;;;;;16.99;65.67;101095.75;5015582;28;20034;-50
2022/08/27 02:18:57;;;;;;;1.70;1.55;;;;;;;16.88;66.18;101091.84;5016242;28;20052;-51
2022/08/27 02:21:23;;;;;;;1.83;1.60;;;;;;;16.93;66.09;101104.78;5014144;28;20442;-52
2022/08/27 02:23:49;;;;;;;3.05;1.50;;;;;;;16.92;65.98;101103.97;5016180;28;20108;-54
2022/08/27 02:26:15;;;;;;;4.63;2.15;;;;;;;16.88;66.48;101101.88;5015355;28;20034;-54
2022/08/27 02:28:41;;;;;;;3.65;1.65;;;;;;;16.84;66.22;101101.50;5015677;28;20421;-53
2022/08/27 02:31:07;;;;;;;3.72;1.65;;;;;;;16.81;66.27;101104.63;5015550;28;20026;-54
2022/08/27 02:33:33;;;;;;;5.32;2.00;;;;;;;16.64;66.57;101094.31;5015212;28;20030;-54
2022/08/27 02:35:59;;;;;;;3.20;2.88;;;;;;;16.69;66.35;101090.09;5015352;28;20037;-51
2022/08/27 02:38:25;;;;;;;2.78;2.58;;;;;;;16.71;66.99;101101.56;5015073;28;20117;-54
2022/08/27 02:40:50;;;;;;;4.05;2.75;;;;;;;16.67;66.96;101114.72;5015198;28;20034;-53
2022/08/27 02:43:17;;;;;;;2.50;2.30;;;;;;;16.65;66.57;101112.22;5015402;28;20041;-51
2022/08/27 02:45:43;;;;;;;3.92;2.38;;;;;;;16.60;66.76;101112.06;5015875;28;20034;-50
2022/08/27 02:48:08;;;;;;;4.90;2.70;;;;;;;16.55;66.71;101102.94;5014968;28;20030;-53
2022/08/27 02:50:35;;;;;;;3.80;2.72;;;;;;;16.54;66.89;101109.38;5015711;28;20114;-49
2022/08/27 02:53:03;;;;;;;4.30;3.60;;;;;;;16.48;67.04;101112.97;5014597;28;20046;-53
2022/08/27 02:55:28;;;;;;;2.75;2.13;;;;;;;16.44;67.38;101105.25;5014570;28;20375;-51
2022/08/27 02:57:55;;;;;;;3.70;2.80;;;;;;;16.43;67.36;101108.19;5015035;28;20033;-52
2022/08/27 03:00:23;;;;;;;2.88;2.65;;;;;;;16.38;67.52;101100.72;5015511;28;20034;-49
2022/08/27 03:02:50;;;;;;;8.10;4.25;;;;;;;16.22;68.87;101103.91;5017496;28;20037;-52
2022/08/27 03:05:17;;;;;;;4.18;3.70;;;;;;;16.13;68.66;101106.03;5014600;28;20390;-50
2022/08/27 03:07:44;;;;;;;5.43;4.18;;;;;;;15.98;69.51;101105.47;5015110;28;20029;-50
2022/08/27 03:10:12;;;;;;;8.50;3.50;;;;;;;15.97;69.90;101112.78;5019753;28;20089;-53
2022/08/27 03:12:39;;;;;;;4.63;3.80;;;;;;;15.94;69.43;101099.66;5020825;28;20022;-50
2022/08/27 03:15:08;;;;;;;4.80;2.70;;;;;;;16.00;69.03;101109.63;5014416;28;20045;-54
2022/08/27 03:20:20;;;;;;;4.45;2.97;;;;;;;15.86;69.25;101089.88;5000238;28;20036;-49
2022/08/27 03:22:46;;;;;;;3.58;2.55;;;;;;;15.91;69.43;101101.94;5013556;28;20073;-49
2022/08/27 03:25:14;;;;;;;3.78;3.10;;;;;;;15.86;69.17;101105.28;5014605;28;20530;-49
2022/08/27 03:27:40;;;;;;;4.20;2.78;;;;;;;15.80;69.72;101111.56;5014716;28;20440;-50
2022/08/27 03:30:10;;;;;;;3.88;2.78;;;;;;;15.76;69.50;101111.16;5015009;28;20041;-54
2022/08/27 03:32:37;;;;;;;5.97;2.42;;;;;;;15.74;70.11;101113.25;5015006;28;20026;-52
2022/08/27 03:35:04;;;;;;;2.70;2.50;;;;;;;15.71;69.75;101101.97;5012635;28;20061;-50
2022/08/27 03:37:30;;;;;;;5.53;3.00;;;;;;;15.60;69.89;101093.47;5014575;28;20026;-49
2022/08/27 03:39:55;;;;;;;3.92;3.53;;;;;;;15.64;70.17;101115.53;5014825;28;20029;-49
2022/08/27 03:42:22;;;;;;;4.43;2.75;;;;;;;15.54;70.29;101098.88;5017318;28;20060;-51
2022/08/27 03:44:48;;;;;;;4.88;2.42;;;;;;;15.57;70.39;101107.41;5016335;28;20116;-53
2022/08/27 03:47:14;;;;;;;2.55;2.13;;;;;;;15.56;70.30;101113.03;5017501;28;20225;-53
2022/08/27 03:49:40;;;;;;;3.40;2.50;;;;;;;15.54;70.26;101113.25;5017715;28;20033;-54
2022/08/27 03:52:07;;;;;;;2.60;1.92;;;;;;;15.46;70.15;101098.06;5017947;28;20022;-53
2022/08/27 03:54:35;;;;;;;5.18;2.42;;;;;;;15.49;70.43;101107.66;5015074;28;20037;-53
2022/08/27 03:57:01;;;;;;;2.42;2.03;;;;;;;15.46;70.32;101105.34;5014838;28;20037;-48
2022/08/27 03:59:27;;;;;;;3.05;2.35;;;;;;;15.42;70.25;101107.66;5013446;28;20034;-48
2022/08/27 04:01:53;;;;;;;3.13;2.05;;;;;;;15.33;70.65;101099.97;5014481;28;20033;-52
2022/08/27 04:04:19;;;;;;;3.80;2.00;;;;;;;15.38;70.67;101111.81;5014078;28;20029;-51
2022/08/27 04:06:44;;;;;;;3.42;3.08;;;;;;;15.28;70.83;101097.84;5013978;28;20030;-53
2022/08/27 04:09:10;;;;;;;3.50;2.90;;;;;;;15.35;70.58;101117.63;5014666;28;20378;-51
2022/08/27 04:11:36;;;;;;;2.60;2.40;;;;;;;15.27;71.02;101109.75;5012473;28;20033;-50
2022/08/27 04:14:04;;;;;;;2.97;2.42;;;;;;;15.29;70.73;101113.06;5014313;28;20057;-49
2022/08/27 04:16:31;;;;;;;5.93;2.50;;;;;;;15.23;70.72;101111.19;5014083;28;20034;-49
2022/08/27 04:18:56;;;;;;;3.53;2.65;;;;;;;15.22;70.86;101117.66;5012883;28;20037;-48
2022/08/27 04:21:23;;;;;;;3.42;2.45;;;;;;;15.09;70.93;101107.66;5029406;28;20033;-48
2022/08/27 04:23:48;;;;;;;2.00;1.90;;;;;;;15.16;70.68;101118.50;5029426;28;20030;-49
2022/08/27 04:26:15;;;;;;;6.93;2.85;;;;;;;15.06;71.22;101111.63;5014232;28;20034;-53
2022/08/27 04:28:41;;;;;;;2.50;2.30;;;;;;;15.09;71.28;101111.19;5013491;28;20029;-51
2022/08/27 04:31:07;;;;;;;3.45;2.38;;;;;;;15.10;71.04;101120.16;5013816;28;20034;-48
2022/08/27 04:33:33;;;;;;;4.00;2.50;;;;;;;14.96;71.04;101094.13;5014094;28;20033;-51
2022/08/27 04:36:02;;;;;;;4.05;2.60;;;;;;;15.05;70.80;101106.41;5014098;28;20451;-51
2022/08/27 04:38:28;;;;;;;2.58;2.38;;;;;;;15.05;70.89;101109.94;5013968;28;20534;-50
2022/08/27 04:43:40;;;;;;;3.50;2.30;;;;;;;14.98;71.10;101114.50;5012862;28;20411;-53
2022/08/27 04:46:06;;;;;;;3.58;2.35;;;;;;;14.96;71.06;101110.34;5015262;28;20076;-50
2022/08/27 04:48:32;;;;;;;2.47;2.25;;;;;;;14.93;71.34;101117.00;5032684;28;20033;-51
2022/08/27 04:50:57;;;;;;;2.17;1.98;;;;;;;14.91;71.21;101121.78;5016873;28;20046;-50
2022/08/27 04:53:23;;;;;;;2.80;2.58;;;;;;;14.90;71.54;101114.72;5017279;28;20108;-51
2022/08/27 04:55:51;;;;;;;2.72;1.92;;;;;;;14.90;71.35;101123.66;5017537;28;20037;-50
2022/08/27 04:58:19;;;;;;;2.45;1.95;;;;;;;14.86;71.51;101114.28;5017561;28;20531;-48
2022/08/27 05:00:48;;;;;;;2.10;1.90;;;;;;;14.87;71.29;101118.66;5016418;28;20077;-50
2022/08/27 05:03:15;;;;;;;4.75;1.95;;;;;;;14.85;71.50;101123.44;5017435;28;20065;-52
2022/08/27 05:05:42;;;;;;;2.20;2.00;;;;;;;14.70;71.57;101098.47;5015684;28;20401;-50
2022/08/27 05:08:11;;;;;;;2.20;1.85;;;;;;;14.74;71.45;101107.00;5017320;28;20378;-50
2022/08/27 05:10:40;;;;;;;8.70;3.67;;;;;;;14.77;72.14;101118.22;5017309;28;20445;-53
2022/08/27 05:13:06;;;;;;;2.85;2.60;;;;;;;14.74;72.32;101128.63;5016855;28;20034;-53
2022/08/27 05:15:31;;;;;;;5.22;4.20;;;;;;;14.70;72.41;101122.78;5015922;28;20041;-50
2022/08/27 05:17:59;;;;;;;6.85;3.17;;;;;;;14.65;73.05;101127.97;5016760;28;20077;-51
2022/08/27 05:20:26;;;;;;;5.50;2.85;;;;;;;14.54;72.35;101099.63;5017427;28;20104;-52
2022/08/27 05:22:52;;;;;;;5.78;3.30;;;;;;;14.62;72.37;101117.59;5016049;28;20045;-50
2022/08/27 05:25:18;;;;;;;3.53;2.97;;;;;;;14.65;72.47;101118.00;5017054;28;20079;-49
2022/08/27 05:27:44;;;;;;;3.03;2.70;;;;;;;14.64;72.02;101123.63;5016895;28;20034;-49
2022/08/27 05:30:11;;;;;;;10.23;3.20;;;;;;;14.63;72.69;101124.63;5016713;28;20045;-49
2022/08/27 05:32:37;;;;;;;4.38;3.10;;;;;;;14.63;72.22;101122.75;5017040;28;20113;-50
2022/08/27 05:35:03;;;;;;;3.80;3.33;;;;;;;14.66;72.12;101127.78;5016845;28;20034;-50
2022/08/27 05:37:29;;;;;;;2.85;2.53;;;;;;;14.71;72.12;101132.59;5015463;28;20030;-50
2022/08/27 05:39:55;;;;;;;3.55;2.60;;;;;;;14.75;71.26;101133.00;5016867;28;20029;-51
2022/08/27 05:42:20;;;;;;;3.65;2.50;;;;;;;14.77;71.64;101139.03;5016600;28;20032;-49
2022/08/27 05:44:46;;;;;;;2.75;2.53;;;;;;;14.77;71.83;101141.75;5016479;28;20042;-50
2022/08/27 05:47:12;;;;;;;2.80;2.60;;;;;;;14.77;72.00;101141.75;5015296;28;20065;-53
2022/08/27 05:49:38;;;;;;;5.90;2.90;;;;;;;14.78;71.76;101146.09;5016189;28;20034;-49
2022/08/27 05:52:08;;;;;;;2.50;2.30;;;;;;;14.74;71.90;101140.25;5014946;28;20034;-52
2022/08/27 05:54:34;;;;;;;4.00;2.15;;;;;;;14.74;71.87;101147.56;5015179;28;20034;-52
2022/08/27 05:57:00;;;;;;;2.70;2.50;;;;;;;14.73;72.01;101140.47;5015523;28;20068;-50
2022/08/27 06:02:11;;;;;;;3.17;2.88;;;;;;;14.79;72.25;101154.00;5015085;28;20495;-49
2022/08/27 06:04:37;;;;;;;4.38;3.10;;;;;;;14.75;72.53;101135.72;5016032;28;20038;-49
2022/08/27 06:07:03;;;;;;;6.45;4.18;;;;;;;14.81;72.57;101151.94;4998734;28;20029;-48
2022/08/27 06:09:29;;;;;;;3.63;3.28;;;;;;;14.90;72.12;101152.59;5016067;28;20467;-48
2022/08/27 06:11:56;;;;;;;3.25;2.95;;;;;;;14.95;72.04;101150.09;5014732;28;20038;-49
2022/08/27 06:14:22;;;;;;;5.55;3.67;;;;;;;14.89;72.63;101135.53;5016420;28;20026;-49
2022/08/27 06:16:48;;;;;;;3.80;3.42;;;;;;;15.55;71.45;101150.13;4998182;28;20084;-48
2022/08/27 06:19:15;;;;;;;4.68;3.33;;;;;;;16.81;67.42;101156.19;5016066;28;20030;-48
2022/08/27 06:21:41;;;;;;;6.32;3.70;;;;;;;16.39;67.23;101153.03;5016143;28;20038;-48
2022/08/27 06:24:08;;;;;;;3.45;3.08;;;;;;;15.85;69.16;101160.50;5015621;28;20097;-49
2022/08/27 06:26:35;;;;;;;4.78;4.20;;;;;;;15.56;70.90;101159.88;5014586;28;20030;-49
2022/08/27 06:29:03;;;;;;;4.57;4.18;;;;;;;15.49;70.75;101169.91;5015880;28;20033;-51
2022/08/27 06:31:29;;;;;;;9.00;6.90;;;;;;;15.34;70.93;101159.28;5016677;28;20026;-49
2022/08/27 06:34:00;;;;;;;7.63;5.72;;;;;;;15.37;71.21;101160.75;5015334;28;20040;-48
2022/08/27 06:36:28;;;;;;;5.78;5.13;;;;;;;15.44;71.36;101169.69;5014643;28;20109;-51
2022/08/27 06:38:55;;;;;;;5.20;4.60;;;;;;;15.42;71.22;101169.91;5015892;28;20467;-49
2022/08/27 06:41:25;;;;;;;6.07;5.45;;;;;;;15.45;71.57;101179.47;5016537;28;20030;-49
2022/08/27 06:43:52;;;;;;;6.03;4.50;;;;;;;15.37;71.42;101158.03;5015629;28;20462;-49
2022/08/27 06:46:21;;;;;;;6.65;5.50;;;;;;;15.51;71.48;101180.50;4998808;28;20459;-49
2022/08/27 06:48:50;;;;;;;7.22;6.20;;;;;;;15.54;71.62;101182.81;5014906;28;20443;-49
2022/08/27 06:51:19;;;;;;;7.05;5.68;;;;;;;15.43;72.15;101171.56;5014994;28;20041;-49
2022/08/27 06:53:46;;;;;;;7.07;5.18;;;;;;;15.55;71.58;101189.91;5016751;28;20394;-53
2022/08/27 06:56:14;;;;;;;5.63;4.45;;;;;;;15.63;71.62;101185.09;5016587;28;20090;-50
2022/08/27 06:58:41;;;;;;;6.88;4.53;;;;;;;15.70;71.57;101181.56;5015242;28;20430;-49
2022/08/27 07:01:18;;;;;;;6.20;5.25;;;;;;;15.72;71.55;101174.88;5015535;28;20022;-49
2022/08/27 07:03:44;;;;;;;8.77;5.38;;;;;;;15.94;71.70;101193.63;5014265;28;20083;-49
2022/08/27 07:06:13;;;;;;;13.80;7.22;;;;;;;15.96;71.75;101173.41;5015763;28;20117;-48
2022/08/27 07:08:39;;;;;;;11.10;7.57;;;;;;;16.22;71.91;101190.66;5013965;28;20030;-48
2022/08/27 07:11:09;;;;;;;10.38;7.47;;;;;;;16.33;71.85;101191.88;5015290;28;20116;-48
2022/08/27 07:13:36;;;;;;;10.05;6.57;;;;;;;16.39;70.96;101172.84;5014915;28;20041;-49
2022/08/27 07:16:11;;;;;;;3.88;3.58;;;;;;;16.77;70.03;101195.63;5013822;28;20396;-48
2022/08/27 07:18:38;;;;;;;13.65;6.38;;;;;;;16.81;70.75;101192.28;5014847;28;20467;-48
2022/08/27 07:21:05;;;;;;;8.32;5.57;;;;;;;16.85;70.72;101176.41;5015046;28;20035;-49
2022/08/27 07:23:32;;;;;;;6.63;4.28;;;;;;;17.14;69.97;101193.13;5015122;28;20061;-50
2022/08/27 07:25:59;;;;;;;7.03;4.00;;;;;;;17.20;69.41;101181.41;5013734;28;20030;-49
2022/08/27 07:28:25;;;;;;;3.90;3.60;;;;;;;17.40;69.07;101200.25;5029742;28;20029;-48
2022/08/27 07:30:52;;;;;;;4.07;3.65;;;;;;;17.51;68.47;101204.13;5013485;28;20034;-51
2022/08/27 07:33:18;;;;;;;7.57;4.68;;;;;;;17.45;68.86;101203.13;5014785;28;20041;-50
2022/08/27 07:35:45;;;;;;;10.32;6.10;;;;;;;17.48;69.13;101197.28;5015381;28;20172;-48
2022/08/27 07:38:11;;;;;;;8.82;5.57;;;;;;;17.64;69.21;101205.91;5030344;28;20021;-49
2022/08/27 07:40:38;;;;;;;8.02;4.40;;;;;;;17.70;68.73;101205.88;5014854;28;20030;-48
2022/08/27 07:45:54;;;;;;;9.45;5.30;;;;;;;17.60;68.87;101206.34;5018401;28;20026;-50
2022/08/27 07:48:22;;;;;;;12.23;6.15;;;;;;;17.56;69.32;101215.19;5016597;28;20080;-52
2022/08/27 07:50:49;;;;;;;11.13;5.35;;;;;;;17.47;70.06;101211.06;5015312;28;20033;-50
2022/08/27 07:53:15;;;;;;;7.55;5.32;;;;;;;17.40;69.86;101209.25;5013975;28;20110;-48
2022/08/27 07:55:41;;;;;;;10.07;5.72;;;;;;;17.36;69.62;101199.84;5014498;28;20113;-54
2022/08/27 07:58:06;;;;;;;7.53;4.93;;;;;;;17.49;69.80;101211.69;5015510;28;20083;-49
2022/08/27 08:00:35;;;;;;;5.70;4.65;;;;;;;17.48;69.29;101208.13;4997150;28;20072;-52
2022/08/27 08:03:01;;;;;;;3.83;3.40;;;;;;;17.52;69.34;101203.91;5014914;28;20036;-52
2022/08/27 08:05:27;;;;;;;5.35;3.90;;;;;;;17.58;68.69;101205.75;5014576;28;20026;-49
2022/08/27 08:07:53;;;;;;;7.28;4.90;;;;;;;17.62;68.99;101206.13;5012992;28;20065;-51
2022/08/27 08:10:22;;;;;;;9.15;5.13;;;;;;;17.67;69.59;101216.34;5014372;28;20065;-50
2022/08/27 08:12:48;;;;;;;7.70;3.33;;;;;;;17.74;68.96;101208.97;5013820;28;20033;-50
2022/08/27 08:15:14;;;;;;;4.55;2.92;;;;;;;17.72;68.48;101201.03;5012871;28;20034;-51
2022/08/27 08:17:40;;;;;;;9.27;5.07;;;;;;;17.84;68.67;101212.00;5014490;28;20326;-52
2022/08/27 08:20:08;;;;;;;10.05;5.70;;;;;;;17.85;69.42;101201.97;5015488;28;20104;-52
2022/08/27 08:22:34;;;;;;;8.18;4.40;;;;;;;17.91;68.61;101201.94;5033783;28;20072;-51
2022/08/27 08:25:00;;;;;;;10.60;6.43;;;;;;;17.90;68.30;101199.44;5017116;28;20030;-53
2022/08/27 08:27:26;;;;;;;9.63;5.85;;;;;;;18.09;68.03;101217.44;5017104;28;20061;-52
2022/08/27 08:29:52;;;;;;;8.00;6.82;;;;;;;18.14;69.15;101214.03;5017376;28;20339;-51
2022/08/27 08:32:19;;;;;;;8.35;5.75;;;;;;;18.16;68.78;101214.63;5018999;28;20118;-52
2022/08/27 08:34:45;;;;;;;6.70;4.68;;;;;;;18.23;68.13;101220.84;5000963;28;20034;-54
2022/08/27 08:37:13;;;;;;;8.20;6.53;;;;;;;18.32;68.25;101221.38;5018300;28;20408;-50
2022/08/27 08:39:39;;;;;;;8.20;4.63;;;;;;;18.44;67.94;101222.25;5016826;28;20501;-54
2022/08/27 08:42:09;;;;;;;10.65;7.22;;;;;;;18.51;67.82;101222.19;5017816;28;20045;-51
2022/08/27 08:44:51;;;;;;;10.07;6.53;;;;;;;18.54;67.04;101206.25;5018216;28;20037;-50
2022/08/27 08:47:25;;;;;;;10.65;5.85;;;;;;;18.72;66.74;101219.00;5017806;28;20025;-51
2022/08/27 08:50:05;;;;;;;6.30;5.70;;;;;;;18.84;66.50;101223.69;5016894;28;20065;-51
2022/08/27 08:52:42;;;;;;;11.10;6.05;;;;;;;19.01;66.42;101226.59;5017521;28;20077;-50
2022/08/27 08:55:33;;;;;;;10.63;7.18;;;;;;;19.12;65.42;101218.47;5000576;28;20030;-49
2022/08/27 08:58:18;;;;;;;6.95;6.22;;;;;;;19.29;65.55;101217.81;5003356;28;20367;-49
2022/08/27 09:00:47;;;;;;;9.25;5.35;;;;;;;19.54;65.60;101232.06;5016495;28;20042;-50
2022/08/27 09:03:15;;;;;;;8.57;5.55;;;;;;;19.83;64.17;101228.69;5018210;28;20030;-51
2022/08/27 09:05:52;;;;;;;10.05;6.32;;;;;;;20.08;63.22;101234.75;5017374;28;20124;-48
2022/08/27 09:08:30;;;;;;;10.13;6.10;;;;;;;20.20;62.92;101223.81;5015927;28;20030;-49
2022/08/27 09:11:36;;;;;;;6.35;5.32;;;;;;;20.49;61.24;101227.44;5018014;28;20394;-48
2022/08/27 09:14:12;;;;;;;5.82;4.05;;;;;;;20.83;60.45;101219.41;5005740;28;20041;-49
2022/08/27 09:16:38;;;;;;;6.38;4.43;;;;;;;21.17;59.58;101213.19;5017263;28;20030;-50
2022/08/27 09:19:05;;;;;;;7.78;4.15;;;;;;;22.40;55.61;101215.94;5017590;28;20102;-50
2022/08/27 09:21:56;;;;;;;8.57;3.95;;;;;;;23.71;50.37;101213.16;5017747;28;20034;-50
2022/08/27 09:24:58;;;;;;;6.78;3.28;;;;;;;24.92;48.03;101215.13;5016102;28;20121;-52
2022/08/27 09:27:24;;;;;;;4.13;2.33;;;;;;;26.15;47.14;101214.31;5016367;28;20030;-50
2022/08/27 09:29:53;;;;;;;12.38;3.60;;;;;;;26.87;44.80;101216.78;5016567;28;20520;-53
2022/08/27 09:32:24;;;;;;;3.60;2.35;;;;;;;27.38;44.79;101213.69;5014470;28;20045;-54
2022/08/27 09:34:50;;;;;;;3.35;2.67;;;;;;;27.88;44.34;101214.31;5015905;28;20479;-52
2022/08/27 09:37:21;;;;;;;4.15;3.05;;;;;;;28.19;39.92;101216.75;4999336;28;20026;-49
2022/08/27 09:39:52;;;;;;;3.20;1.83;;;;;;;28.91;41.39;101218.63;5015403;28;20029;-53
2022/08/27 09:42:28;;;;;;;3.80;2.08;;;;;;;29.68;37.51;101212.69;5015605;28;20466;-53
2022/08/27 09:44:54;;;;;;;4.00;2.30;;;;;;;30.07;40.24;101205.03;5015741;28;20029;-53
2022/08/27 09:47:20;;;;;;;2.92;1.85;;;;;;;30.75;39.18;101213.63;5015577;28;20021;-54
2022/08/27 09:49:46;;;;;;;3.40;2.20;;;;;;;31.35;38.58;101218.88;5016636;28;20055;-50
2022/08/27 09:52:32;;;;;;;4.60;2.90;;;;;;;31.29;34.54;101208.22;5014938;28;20072;-52
2022/08/27 09:54:58;;;;;;;1.88;1.70;;;;;;;31.59;37.38;101220.50;5016408;28;20471;-50
2022/08/27 09:57:38;;;;;;;3.90;2.45;;;;;;;31.96;35.49;101208.13;5016416;28;20057;-50
2022/08/27 10:00:07;;;;;;;5.40;1.90;;;;;;;32.50;34.05;101210.75;5017053;28;20093;-51
2022/08/27 10:02:33;;;;;;;4.78;2.45;;;;;;;32.60;35.22;101204.09;4999328;28;20038;-50
2022/08/27 10:05:12;;;;;;;8.52;3.58;;;;;;;32.29;31.03;101198.63;5015391;28;20061;-49
2022/08/27 10:07:46;;;;;;;4.30;2.58;;;;;;;32.78;32.28;101202.13;5014752;28;20022;-49
2022/08/27 10:10:18;;;;;;;1.70;1.60;;;;;;;33.33;33.12;101201.47;5016073;28;20041;-49
2022/08/27 10:12:54;;;;;;;5.00;2.75;;;;;;;33.93;31.22;101210.00;5015767;28;20451;-51
2022/08/27 10:15:22;;;;;;;3.78;2.30;;;;;;;34.19;30.77;101198.75;5016574;28;20037;-50
2022/08/27 10:18:02;;;;;;;3.67;2.40;;;;;;;34.37;28.90;101204.25;5016045;28;20065;-53
2022/08/27 10:21:07;;;;;;;4.43;2.40;;;;;;;34.50;27.92;101192.81;5015859;28;20037;-50
2022/08/27 10:24:13;;;;;;;4.03;1.70;;;;;;;34.70;27.32;101194.03;5003716;28;20053;-50
2022/08/27 10:26:48;;;;;;;6.85;2.58;;;;;;;35.11;27.90;101199.09;5003730;28;20034;-50
2022/08/27 10:29:40;;;;;;;5.32;2.55;;;;;;;34.49;25.69;101188.41;5015053;28;20079;-52
2022/08/27 10:32:42;;;;;;;4.65;2.20;;;;;;;34.96;27.76;101200.56;5014544;28;20030;-49
2022/08/27 10:35:16;;;;;;;6.38;1.83;;;;;;;34.77;28.44;101198.22;5014905;28;20029;-49
2022/08/27 10:37:58;;;;;;;5.68;1.85;;;;;;;35.54;25.62;101192.28;5014668;28;20068;-51
2022/08/27 10:40:33;;;;;;;5.22;1.58;;;;;;;35.75;26.01;101189.41;5014429;28;20034;-50
2022/08/27 10:43:28;;;;;;;6.25;2.08;;;;;;;35.51;22.96;101192.97;5014552;28;20026;-49
2022/08/27 10:46:28;;;;;;;5.75;2.47;;;;;;;35.01;23.18;101186.38;5014376;28;20371;-53
2022/08/27 10:49:12;;;;;;;5.10;1.75;;;;;;;35.60;24.47;101180.50;5014214;28;20057;-48
2022/08/27 10:51:54;;;;;;;2.88;1.40;;;;;;;33.28;28.46;101190.50;5015321;28;20045;-51
2022/08/27 10:54:45;;;;;;;5.82;2.05;;;;;;;31.80;29.48;101193.03;5015062;28;20092;-47
2022/08/27 10:57:26;;;;;;;3.35;1.40;;;;;;;31.43;30.63;101184.78;5001516;28;20034;-48
2022/08/27 11:00:09;;;;;;;3.13;1.73;;;;;;;33.49;26.54;101185.06;5014167;28;20060;-52
2022/08/27 11:02:53;;;;;;;3.92;1.75;;;;;;;31.77;29.46;101188.91;5015122;28;20044;-52
2022/08/27 11:05:35;;;;;;;4.55;1.92;;;;;;;30.23;30.67;101198.06;5014094;28;20366;-49
2022/08/27 11:08:23;;;;;;;3.80;1.90;;;;;;;29.80;33.65;101197.56;5030188;28;20122;-52
2022/08/27 11:10:55;;;;;;;5.22;1.73;;;;;;;29.55;33.96;101185.78;5014317;28;20030;-51
2022/08/27 11:13:46;;;;;;;3.75;1.65;;;;;;;29.34;33.44;101177.81;5015500;28;20030;-48
2022/08/27 11:16:19;;;;;;;2.38;1.15;;;;;;;31.36;31.29;101189.16;5016200;28;20053;-51
2022/08/27 11:19:10;;;;;;;5.97;1.50;;;;;;;31.19;29.55;101181.53;5015532;28;20161;-49
2022/08/27 11:22:06;;;;;;;1.98;1.20;;;;;;;31.71;28.19;101187.44;5013808;28;20034;-50
2022/08/27 11:24:47;;;;;;;2.72;1.38;;;;;;;33.74;27.71;101171.41;5014377;28;20038;-48
2022/08/27 11:27:21;;;;;;;5.50;2.00;;;;;;;35.31;26.14;101183.47;5013598;28;20079;-50
2022/08/27 11:29:57;;;;;;;6.13;1.80;;;;;;;34.61;27.19;101175.69;4997021;28;20044;-50
2022/08/27 11:32:53;;;;;;;4.40;1.88;;;;;;;35.03;24.30;101184.03;5013418;28;20026;-49
2022/08/27 11:35:59;;;;;;;4.30;1.70;;;;;;;33.34;25.39;101178.06;5014353;28;20033;-49
2022/08/27 11:38:42;;;;;;;5.40;1.50;;;;;;;35.22;24.71;101180.78;5002802;28;20041;-49
2022/08/27 11:41:27;;;;;;;;;;;;;;;35.15;22.80;101170.13;5017426;28;20213;-52
2022/08/27 11:43:53;;;;;;;2.25;1.40;;;;;;;36.10;25.59;101166.59;5020607;28;19914;-51
2022/08/27 11:46:24;;;;;;;8.38;1.77;;;;;;;36.73;21.42;101171.75;5021272;28;20049;-52
2022/08/27 11:49:05;;;;;;;5.22;1.67;;;;;;;36.97;21.38;101174.44;5004272;28;20022;-51